createdAt,value
2023-02-27T00:03:17.930Z,100185.19
2023-02-27T00:07:25.977Z,100191.06
2023-02-27T00:11:29.531Z,100185.78
2023-02-27T00:15:34.443Z,100183.03
2023-02-27T00:19:37.412Z,100187.34
2023-02-27T00:23:40.623Z,100191.50
2023-02-27T00:27:43.807Z,100197.59
2023-02-27T00:31:48.407Z,100197.72
2023-02-27T00:35:57.640Z,100195.06
2023-02-27T00:40:00.841Z,100206.31
2023-02-27T00:44:03.904Z,100215.97
2023-02-27T00:48:08.379Z,100215.19
2023-02-27T00:52:11.382Z,100214.59
2023-02-27T00:56:14.572Z,100221.56
2023-02-27T01:00:18.212Z,100215.63
2023-02-27T01:04:22.758Z,100216.53
2023-02-27T01:08:25.764Z,100221.09
2023-02-27T01:12:28.913Z,100224.50
2023-02-27T01:16:32.085Z,100224.66
2023-02-27T01:20:36.615Z,100223.78
2023-02-27T01:24:39.640Z,100228.97
2023-02-27T01:28:43.109Z,100236.94
2023-02-27T01:32:48.872Z,100229.09
2023-02-27T01:36:53.537Z,100235.44
2023-02-27T01:40:57.372Z,100237.22
2023-02-27T01:45:27.061Z,100228.63
2023-02-27T01:49:33.505Z,100229.59
2023-02-27T01:53:41.107Z,100229.44
2023-02-27T01:57:47.717Z,100229.38
2023-02-27T02:01:52.245Z,100226.72
2023-02-27T02:05:58.753Z,100225.06
2023-02-27T02:10:04.070Z,100224.94
2023-02-27T02:14:10.781Z,100227.47
2023-02-27T02:18:22.868Z,100235.44
2023-02-27T02:23:11.438Z,100232.81
2023-02-27T02:27:27.872Z,100232.59
2023-02-27T02:31:56.921Z,100227.41
2023-02-27T02:36:38.511Z,100235.19
2023-02-27T02:40:52.323Z,100232.59
2023-02-27T02:45:06.832Z,100230.78
2023-02-27T02:49:17.723Z,100232.44
2023-02-27T02:53:36.557Z,100241.09
2023-02-27T02:57:47.094Z,100247.94
2023-02-27T03:01:54.266Z,100251.28
2023-02-27T03:06:03.211Z,100247.66
2023-02-27T03:10:12.951Z,100257.97
2023-02-27T03:14:23.014Z,100263.16
2023-02-27T03:18:32.066Z,100265.66
2023-02-27T03:22:39.007Z,100262.19
2023-02-27T03:26:45.937Z,100271.59
2023-02-27T03:30:57.033Z,100280.03
2023-02-27T03:35:01.775Z,100277.22
2023-02-27T03:39:14.108Z,100282.22
2023-02-27T03:43:28.851Z,100289.91
2023-02-27T03:47:34.386Z,100291.47
2023-02-27T03:51:37.890Z,100294.78
2023-02-27T03:55:46.470Z,100302.38
2023-02-27T03:59:49.922Z,100301.34
2023-02-27T04:04:00.485Z,100309.91
2023-02-27T04:08:46.006Z,100303.75
2023-02-27T04:13:24.164Z,100307.41
2023-02-27T04:17:29.861Z,100307.41
2023-02-27T04:21:43.573Z,100311.75
2023-02-27T04:26:00.613Z,100309.03
2023-02-27T04:30:15.953Z,100314.22
2023-02-27T04:34:24.756Z,100312.59
2023-02-27T04:38:33.371Z,100327.38
2023-02-27T04:42:39.813Z,100322.94
2023-02-27T04:46:45.728Z,100336.72
2023-02-27T04:50:53.406Z,100341.91
2023-02-27T04:55:04.251Z,100336.56
2023-02-27T04:59:12.195Z,100331.31
2023-02-27T05:03:20.628Z,100327.69
2023-02-27T05:07:28.066Z,100339.66
2023-02-27T05:11:37.903Z,100345.59
2023-02-27T05:15:47.740Z,100349.59
2023-02-27T05:19:51.142Z,100349.59
2023-02-27T05:24:07.483Z,100356.41
2023-02-27T05:28:18.260Z,100347.66
2023-02-27T05:32:35.092Z,100352.84
2023-02-27T05:36:43.282Z,100353.63
2023-02-27T05:40:51.201Z,100359.72
2023-02-27T05:45:01.694Z,100364.00
2023-02-27T05:49:10.794Z,100354.31
2023-02-27T05:53:19.069Z,100369.53
2023-02-27T05:57:29.236Z,100357.41
2023-02-27T06:01:34.524Z,100373.59
2023-02-27T06:05:38.266Z,100377.81
2023-02-27T06:09:41.474Z,100388.00
2023-02-27T06:13:44.683Z,100395.78
2023-02-27T06:17:49.030Z,100402.84
2023-02-27T06:21:52.065Z,100401.03
2023-02-27T06:25:55.047Z,100409.06
2023-02-27T06:29:58.156Z,100420.22
2023-02-27T06:34:02.925Z,100424.34
2023-02-27T06:38:06.167Z,100434.81
2023-02-27T06:42:09.233Z,100436.59
2023-02-27T06:46:12.414Z,100440.38
2023-02-27T06:50:17.561Z,100448.25
2023-02-27T06:54:20.722Z,100449.19
2023-02-27T06:58:24.832Z,100458.84
2023-02-27T07:02:28.043Z,100463.16
2023-02-27T07:07:33.907Z,100462.50
2023-02-27T07:10:55.644Z,100474.75
2023-02-27T07:14:59.056Z,100475.78
2023-02-27T07:19:02.194Z,100485.50
2023-02-27T07:23:06.529Z,100487.31
2023-02-27T07:27:09.671Z,100491.81
2023-02-27T07:31:12.724Z,100488.66
2023-02-27T07:35:16.106Z,100484.50
2023-02-27T07:39:20.473Z,100486.59
2023-02-27T07:43:23.541Z,100486.84
2023-02-27T07:47:26.736Z,100478.75
2023-02-27T07:51:30.357Z,100476.53
2023-02-27T07:55:34.758Z,100483.97
2023-02-27T07:59:37.966Z,100491.09
2023-02-27T08:03:40.957Z,100495.63
2023-02-27T08:07:44.050Z,100491.94
2023-02-27T08:11:49.264Z,100495.06
2023-02-27T08:15:54.224Z,100500.47
2023-02-27T08:19:57.215Z,100496.47
2023-02-27T08:24:00.336Z,100497.16
2023-02-27T08:28:05.116Z,100500.19
2023-02-27T08:32:08.343Z,100503.53
2023-02-27T08:36:11.404Z,100491.59
2023-02-27T08:40:14.577Z,100519.91
2023-02-27T08:44:18.952Z,100513.25
2023-02-27T08:48:24.366Z,100520.16
2023-02-27T08:52:28.159Z,100514.28
2023-02-27T08:56:33.378Z,100525.66
2023-02-27T09:00:37.838Z,100523.78
2023-02-27T09:04:41.294Z,100522.31
2023-02-27T09:08:44.367Z,100517.88
2023-02-27T09:12:49.344Z,100516.22
2023-02-27T09:16:53.894Z,100520.09
2023-02-27T09:20:57.177Z,100524.53
2023-02-27T09:25:00.249Z,100516.78
2023-02-27T09:29:03.315Z,100516.19
2023-02-27T09:33:07.686Z,100516.13
2023-02-27T09:37:10.797Z,100529.38
2023-02-27T09:41:37.756Z,100531.78
2023-02-27T09:45:41.509Z,100529.78
2023-02-27T09:49:57.191Z,100521.97
2023-02-27T09:54:02.617Z,100530.47
2023-02-27T09:58:13.309Z,100549.34
2023-02-27T10:02:39.153Z,100542.91
2023-02-27T10:06:49.478Z,100543.81
2023-02-27T10:11:01.369Z,100543.88
2023-02-27T10:15:13.831Z,100538.22
2023-02-27T10:19:21.754Z,100548.69
2023-02-27T10:23:35.231Z,100558.69
2023-02-27T10:27:39.673Z,100552.16
2023-02-27T10:31:43.855Z,100556.66
2023-02-27T10:35:47.163Z,100553.91
2023-02-27T10:39:58.014Z,100552.69
2023-02-27T10:44:02.057Z,100551.50
2023-02-27T10:48:06.535Z,100548.66
2023-02-27T10:52:12.305Z,100538.81
2023-02-27T10:56:23.619Z,100538.06
2023-02-27T11:00:42.008Z,100533.81
2023-02-27T11:04:53.872Z,100520.53
2023-02-27T11:09:12.712Z,100538.47
2023-02-27T11:13:25.865Z,100527.91
2023-02-27T11:17:31.802Z,100525.94
2023-02-27T11:21:34.798Z,100527.88
2023-02-27T11:25:37.857Z,100509.44
2023-02-27T11:29:58.071Z,100512.44
2023-02-27T11:34:01.507Z,100517.53
2023-02-27T11:38:07.108Z,100515.47
2023-02-27T11:42:18.408Z,100524.78
2023-02-27T11:46:48.075Z,100519.53
2023-02-27T11:51:23.794Z,100511.66
2023-02-27T11:55:29.211Z,100512.38
2023-02-27T11:59:44.856Z,100506.44
2023-02-27T12:03:57.102Z,100499.44
2023-02-27T12:08:05.705Z,100497.94
2023-02-27T12:12:20.202Z,100491.63
2023-02-27T12:16:33.492Z,100498.78
2023-02-27T12:20:51.675Z,100497.59
2023-02-27T12:24:59.986Z,100504.63
2023-02-27T12:29:12.772Z,100501.31
2023-02-27T12:33:22.040Z,100501.69
2023-02-27T12:37:28.853Z,100507.75
2023-02-27T12:41:43.982Z,100503.41
2023-02-27T12:45:58.719Z,100507.25
2023-02-27T12:50:06.567Z,100501.56
2023-02-27T12:54:25.009Z,100505.31
2023-02-27T12:58:39.582Z,100498.47
2023-02-27T13:03:04.219Z,100497.63
2023-02-27T13:07:14.591Z,100491.84
2023-02-27T13:11:26.503Z,100500.72
2023-02-27T13:15:34.786Z,100505.06
2023-02-27T13:19:45.692Z,100502.53
2023-02-27T13:23:59.683Z,100507.88
2023-02-27T13:28:08.529Z,100501.38
2023-02-27T13:32:42.864Z,100494.41
2023-02-27T13:36:52.006Z,100494.28
2023-02-27T13:40:55.089Z,100497.59
2023-02-27T13:45:00.764Z,100495.53
2023-02-27T13:49:29.466Z,100499.91
2023-02-27T13:53:33.099Z,100501.81
2023-02-27T13:57:37.308Z,100500.22
2023-02-27T14:01:49.223Z,100496.94
2023-02-27T14:05:54.194Z,100506.53
2023-02-27T14:10:03.574Z,100509.09
2023-02-27T14:14:31.149Z,100508.25
2023-02-27T14:18:57.499Z,100511.94
2023-02-27T14:23:21.664Z,100504.13
2023-02-27T14:27:28.075Z,100500.28
2023-02-27T14:31:33.275Z,100497.59
2023-02-27T14:35:38.880Z,100507.72
2023-02-27T14:39:42.291Z,100510.34
2023-02-27T14:43:55.026Z,100513.22
2023-02-27T14:47:59.329Z,100520.31
2023-02-27T14:52:14.697Z,100519.69
2023-02-27T14:56:20.314Z,100521.28
2023-02-27T15:00:32.951Z,100518.44
2023-02-27T15:04:36.036Z,100515.69
2023-02-27T15:08:43.221Z,100520.88
2023-02-27T15:12:46.307Z,100526.91
2023-02-27T15:16:49.357Z,100529.50
2023-02-27T15:20:59.965Z,100542.53
2023-02-27T15:25:07.266Z,100545.97
2023-02-27T15:29:17.833Z,100543.16
2023-02-27T15:33:25.734Z,100552.69
2023-02-27T15:37:31.220Z,100544.88
2023-02-27T15:41:36.046Z,100556.13
2023-02-27T15:45:40.152Z,100547.59
2023-02-27T15:49:43.741Z,100552.69
2023-02-27T15:53:51.056Z,100552.56
2023-02-27T15:58:11.085Z,100570.72
2023-02-27T16:02:20.343Z,100568.91
2023-02-27T16:06:27.565Z,100571.75
2023-02-27T16:10:36.839Z,100575.22
2023-02-27T16:14:43.000Z,100582.94
2023-02-27T16:18:49.233Z,100583.81
2023-02-27T16:23:06.126Z,100593.34
2023-02-27T16:27:18.318Z,100591.63
2023-02-27T16:31:27.645Z,100599.28
2023-02-27T16:35:31.027Z,100601.75
2023-02-27T16:39:35.374Z,100608.59
2023-02-27T16:43:38.591Z,100610.31
2023-02-27T16:47:43.006Z,100609.38
2023-02-27T16:51:46.082Z,100618.94
2023-02-27T16:55:49.611Z,100623.19
2023-02-27T16:59:52.653Z,100629.97
2023-02-27T17:03:57.073Z,100640.25
2023-02-27T17:08:00.455Z,100636.81
2023-02-27T17:12:03.610Z,100652.44
2023-02-27T17:16:08.491Z,100656.63
2023-02-27T17:20:15.222Z,100653.19
2023-02-27T17:24:18.323Z,100665.84
2023-02-27T17:28:21.732Z,100670.03
2023-02-27T17:32:25.033Z,100663.94
2023-02-27T17:36:29.935Z,100671.69
2023-02-27T17:40:33.322Z,100682.81
2023-02-27T17:44:36.303Z,100683.56
2023-02-27T17:48:40.164Z,100686.19
2023-02-27T17:52:45.691Z,100689.34
2023-02-27T17:56:48.736Z,100707.66
2023-02-27T18:00:51.812Z,100703.34
2023-02-27T18:04:55.132Z,100713.59
2023-02-27T18:08:59.528Z,100710.16
2023-02-27T18:13:05.148Z,100710.06
2023-02-27T18:17:11.980Z,100723.72
2023-02-27T18:21:17.043Z,100715.72
2023-02-27T18:25:23.460Z,100725.06
2023-02-27T18:29:26.515Z,100730.13
2023-02-27T18:33:29.529Z,100729.97
2023-02-27T18:37:32.593Z,100726.41
2023-02-27T18:41:37.905Z,100734.34
2023-02-27T18:45:41.589Z,100742.72
2023-02-27T18:49:44.606Z,100738.38
2023-02-27T18:53:50.106Z,100743.66
2023-02-27T18:57:54.447Z,100752.25
2023-02-27T19:01:58.042Z,100760.06
2023-02-27T19:06:01.129Z,100760.28
2023-02-27T19:10:05.579Z,100743.75
2023-02-27T19:14:13.271Z,100752.09
2023-02-27T19:18:16.405Z,100762.34
2023-02-27T19:22:19.584Z,100766.56
2023-02-27T19:26:24.311Z,100771.94
2023-02-27T19:30:28.839Z,100769.41
2023-02-27T19:34:31.960Z,100769.41
2023-02-27T19:38:35.022Z,100776.31
2023-02-27T19:42:38.476Z,100778.09
2023-02-27T19:46:43.518Z,100780.06
2023-02-27T19:50:46.670Z,100787.63
2023-02-27T19:54:49.654Z,100777.09
2023-02-27T19:58:54.042Z,100783.09
2023-02-27T20:02:58.393Z,100787.53
2023-02-27T20:07:01.884Z,100791.88
2023-02-27T20:11:06.008Z,100796.34
2023-02-27T20:15:11.782Z,100791.34
2023-02-27T20:19:18.973Z,100791.94
2023-02-27T20:23:22.942Z,100794.38
2023-02-27T20:27:25.974Z,100791.63
2023-02-27T20:31:31.603Z,100787.94
2023-02-27T20:35:39.640Z,100805.13
2023-02-27T20:39:45.168Z,100807.66
2023-02-27T20:43:49.047Z,100816.75
2023-02-27T20:47:52.679Z,100817.19
2023-02-27T20:51:57.787Z,100811.19
2023-02-27T20:56:00.854Z,100814.69
2023-02-27T21:00:05.719Z,100808.59
2023-02-27T21:04:09.067Z,100815.44
2023-02-27T21:08:13.490Z,100823.00
2023-02-27T21:12:16.922Z,100827.00
2023-02-27T21:16:20.807Z,100817.44
2023-02-27T21:20:23.958Z,100827.16
2023-02-27T21:24:31.142Z,100828.97
2023-02-27T21:28:40.908Z,100833.19
2023-02-27T21:32:44.494Z,100829.22
2023-02-27T21:36:48.606Z,100832.41
2023-02-27T21:40:52.980Z,100835.56
2023-02-27T21:44:56.229Z,100832.97
2023-02-27T21:48:59.754Z,100824.28
2023-02-27T21:53:02.922Z,100834.69
2023-02-27T21:57:07.467Z,100831.19
2023-02-27T22:01:17.940Z,100831.13
2023-02-27T22:05:21.295Z,100832.91
2023-02-27T22:09:24.374Z,100835.44
2023-02-27T22:13:29.373Z,100833.47
2023-02-27T22:17:32.620Z,100829.31
2023-02-27T22:21:36.762Z,100832.91
2023-02-27T22:25:41.104Z,100837.94
2023-02-27T22:29:45.491Z,100836.31
2023-02-27T22:33:51.056Z,100841.69
2023-02-27T22:37:54.114Z,100836.47
2023-02-27T22:41:57.239Z,100839.88
2023-02-27T22:46:01.901Z,100838.25
2023-02-27T22:50:05.565Z,100833.72
2023-02-27T22:54:10.094Z,100843.31
2023-02-27T22:58:13.153Z,100840.03
2023-02-27T23:02:18.231Z,100838.31
2023-02-27T23:06:25.086Z,100838.25
2023-02-27T23:10:28.082Z,100828.44
2023-02-27T23:14:31.450Z,100841.69
2023-02-27T23:18:35.991Z,100829.19
2023-02-27T23:22:39.143Z,100832.94
2023-02-27T23:26:44.435Z,100837.00
2023-02-27T23:30:47.547Z,100839.59
2023-02-27T23:34:51.906Z,100841.78
2023-02-27T23:38:55.079Z,100834.28
2023-02-27T23:42:58.036Z,100835.03
2023-02-27T23:47:01.218Z,100835.94
2023-02-27T23:51:07.918Z,100835.22
2023-02-27T23:55:11.693Z,100843.63
2023-02-27T23:59:14.721Z,100840.56
